createdAt,value
2022-08-22T00:01:10.000Z,0
2022-08-22T00:02:27.000Z,0
2022-08-22T00:03:43.000Z,0
2022-08-22T00:04:59.000Z,0
2022-08-22T00:06:15.000Z,0
2022-08-22T00:07:31.000Z,0
2022-08-22T00:08:47.000Z,0
2022-08-22T00:10:02.000Z,0
2022-08-22T00:11:17.000Z,0
2022-08-22T00:12:32.000Z,0
2022-08-22T00:13:48.000Z,0
2022-08-22T00:15:05.000Z,0
2022-08-22T00:16:21.000Z,0
2022-08-22T00:17:37.000Z,0
2022-08-22T00:18:52.000Z,0
2022-08-22T00:20:08.000Z,0
2022-08-22T00:21:25.000Z,0
2022-08-22T00:22:41.000Z,0
2022-08-22T00:23:57.000Z,0
2022-08-22T00:25:13.000Z,0
2022-08-22T00:26:29.000Z,0
2022-08-22T00:27:46.000Z,0
2022-08-22T00:29:02.000Z,0
2022-08-22T00:30:18.000Z,0
2022-08-22T00:31:34.000Z,0
2022-08-22T00:32:50.000Z,0
2022-08-22T00:34:07.000Z,0
2022-08-22T00:35:22.000Z,0
2022-08-22T00:36:38.000Z,0
2022-08-22T00:37:53.000Z,0
2022-08-22T00:40:25.000Z,0
2022-08-22T00:41:41.000Z,0
2022-08-22T00:42:56.000Z,0
2022-08-22T00:44:11.000Z,0
2022-08-22T00:45:27.000Z,0
2022-08-22T00:46:44.000Z,0
2022-08-22T00:48:00.000Z,0
2022-08-22T00:49:16.000Z,0
2022-08-22T00:50:32.000Z,0
2022-08-22T00:51:48.000Z,0
2022-08-22T00:54:21.000Z,0
2022-08-22T00:55:37.000Z,0
2022-08-22T00:56:53.000Z,0
2022-08-22T00:58:09.000Z,0
2022-08-22T00:59:26.000Z,0
2022-08-22T01:00:41.000Z,0
2022-08-22T01:01:57.000Z,0
2022-08-22T01:03:13.000Z,0
2022-08-22T01:04:29.000Z,0
2022-08-22T01:05:46.000Z,0
2022-08-22T01:07:02.000Z,0
2022-08-22T01:08:18.000Z,0
2022-08-22T01:09:34.000Z,0
2022-08-22T01:10:49.000Z,0
2022-08-22T01:12:05.000Z,0
2022-08-22T01:13:20.000Z,0
2022-08-22T01:14:35.000Z,0
2022-08-22T01:15:51.000Z,0
2022-08-22T01:17:07.000Z,0
2022-08-22T01:18:24.000Z,0
2022-08-22T01:19:40.000Z,0
2022-08-22T01:20:56.000Z,0
2022-08-22T01:22:12.000Z,0
2022-08-22T01:23:28.000Z,0
2022-08-22T01:24:45.000Z,0
2022-08-22T01:26:01.000Z,0
2022-08-22T01:27:17.000Z,0
2022-08-22T01:28:33.000Z,0
2022-08-22T01:29:49.000Z,0
2022-08-22T01:31:04.000Z,0
2022-08-22T01:32:21.000Z,0
2022-08-22T01:33:37.000Z,0
2022-08-22T01:34:53.000Z,0
2022-08-22T01:36:09.000Z,0
2022-08-22T01:37:25.000Z,0
2022-08-22T01:38:42.000Z,0
2022-08-22T01:39:57.000Z,0
2022-08-22T01:41:12.000Z,0
2022-08-22T01:42:27.000Z,0
2022-08-22T01:43:43.000Z,0
2022-08-22T01:44:59.000Z,0
2022-08-22T01:46:15.000Z,0
2022-08-22T01:47:31.000Z,0
2022-08-22T01:48:47.000Z,0
2022-08-22T01:50:03.977Z,0
2022-08-22T01:51:20.000Z,0
2022-08-22T01:52:36.000Z,0
2022-08-22T01:53:52.000Z,0
2022-08-22T01:55:08.000Z,0
2022-08-22T01:57:41.000Z,0
2022-08-22T01:58:57.000Z,0
2022-08-22T02:00:12.000Z,0
2022-08-22T02:01:28.000Z,0
2022-08-22T02:02:44.000Z,0
2022-08-22T02:04:01.000Z,0
2022-08-22T02:05:17.000Z,0
2022-08-22T02:06:33.000Z,0
2022-08-22T02:07:49.000Z,0
2022-08-22T02:09:05.000Z,0
2022-08-22T02:10:21.000Z,0
2022-08-22T02:11:36.000Z,0
2022-08-22T02:12:51.000Z,0
2022-08-22T02:14:06.000Z,0
2022-08-22T02:15:22.000Z,0
2022-08-22T02:16:39.000Z,0
2022-08-22T02:17:55.000Z,0
2022-08-22T02:19:11.000Z,0
2022-08-22T02:20:27.000Z,0
2022-08-22T02:21:43.000Z,0
2022-08-22T02:23:00.000Z,0
2022-08-22T02:24:16.000Z,0
2022-08-22T02:25:32.000Z,0
2022-08-22T02:26:48.000Z,0
2022-08-22T02:28:04.000Z,0
2022-08-22T02:29:21.000Z,0
2022-08-22T02:30:36.000Z,0
2022-08-22T02:31:52.000Z,0
2022-08-22T02:33:08.000Z,0
2022-08-22T02:34:24.000Z,0
2022-08-22T02:35:41.000Z,0
2022-08-22T02:36:57.000Z,0
2022-08-22T02:38:13.000Z,0
2022-08-22T02:39:28.000Z,0
2022-08-22T02:40:43.000Z,0
2022-08-22T02:42:00.000Z,0
2022-08-22T02:43:16.000Z,0
2022-08-22T02:44:32.000Z,0
2022-08-22T02:45:48.000Z,0
2022-08-22T02:47:03.000Z,0
2022-08-22T02:48:19.000Z,0
2022-08-22T02:49:35.000Z,0
2022-08-22T02:50:51.000Z,0
2022-08-22T02:52:07.000Z,0
2022-08-22T02:53:23.000Z,0
2022-08-22T02:54:40.000Z,0
2022-08-22T02:55:56.000Z,0
2022-08-22T02:57:12.000Z,0
2022-08-22T02:58:28.000Z,0
2022-08-22T03:01:01.000Z,0
2022-08-22T03:02:17.000Z,0
2022-08-22T03:03:33.000Z,0
2022-08-22T03:04:48.000Z,0
2022-08-22T03:06:04.000Z,0
2022-08-22T03:07:20.000Z,0
2022-08-22T03:08:37.000Z,0
2022-08-22T03:09:53.000Z,0
2022-08-22T03:11:09.000Z,0
2022-08-22T03:12:25.000Z,0
2022-08-22T03:13:41.000Z,0
2022-08-22T03:14:57.000Z,0
2022-08-22T03:16:12.000Z,0
2022-08-22T03:17:28.000Z,0
2022-08-22T03:18:43.000Z,0
2022-08-22T03:19:59.000Z,0
2022-08-22T03:21:15.000Z,0
2022-08-22T03:22:31.000Z,0
2022-08-22T03:23:47.000Z,0
2022-08-22T03:25:03.000Z,0
2022-08-22T03:26:19.000Z,0
2022-08-22T03:27:36.000Z,0
2022-08-22T03:28:52.000Z,0
2022-08-22T03:30:08.000Z,0
2022-08-22T03:31:24.000Z,0
2022-08-22T03:32:40.000Z,0
2022-08-22T03:33:57.000Z,0
2022-08-22T03:35:13.000Z,0
2022-08-22T03:36:28.000Z,0
2022-08-22T03:37:44.000Z,0
2022-08-22T03:39:00.000Z,0
2022-08-22T03:40:17.000Z,0
2022-08-22T03:41:33.000Z,0
2022-08-22T03:42:49.000Z,0
2022-08-22T03:44:05.000Z,0
2022-08-22T03:45:20.000Z,0
2022-08-22T03:46:36.000Z,0
2022-08-22T03:47:52.000Z,0
2022-08-22T03:49:07.000Z,0
2022-08-22T03:50:22.000Z,4
2022-08-22T03:51:38.000Z,4
2022-08-22T03:52:55.000Z,4
2022-08-22T03:54:11.000Z,4
2022-08-22T03:55:27.000Z,4
2022-08-22T03:56:43.000Z,8
2022-08-22T03:57:59.000Z,4
2022-08-22T03:59:16.000Z,8
2022-08-22T04:00:32.000Z,8
2022-08-22T04:01:48.000Z,12
2022-08-22T04:03:04.000Z,12
2022-08-22T04:04:20.000Z,16
2022-08-22T04:05:37.000Z,20
2022-08-22T04:06:52.000Z,24
2022-08-22T04:08:08.000Z,32
2022-08-22T04:09:24.000Z,36
2022-08-22T04:10:40.000Z,44
2022-08-22T04:11:57.000Z,48
2022-08-22T04:13:13.000Z,56
2022-08-22T04:14:29.000Z,60
2022-08-22T04:15:44.000Z,68
2022-08-22T04:16:59.000Z,76
2022-08-22T04:18:15.000Z,88
2022-08-22T04:19:30.000Z,96
2022-08-22T04:20:46.000Z,116
2022-08-22T04:22:02.000Z,136
2022-08-22T04:23:18.000Z,160
2022-08-22T04:24:35.000Z,192
2022-08-22T04:25:51.000Z,228
2022-08-22T04:27:07.000Z,264
2022-08-22T04:28:23.000Z,308
2022-08-22T04:29:39.000Z,348
2022-08-22T04:30:56.000Z,392
2022-08-22T04:32:12.000Z,440
2022-08-22T04:33:27.000Z,488
2022-08-22T04:34:43.000Z,540
2022-08-22T04:35:59.000Z,592
2022-08-22T04:37:16.000Z,644
2022-08-22T04:38:32.000Z,700
2022-08-22T04:39:48.000Z,756
2022-08-22T04:42:20.000Z,868
2022-08-22T04:43:36.000Z,932
2022-08-22T04:44:53.000Z,996
2022-08-22T04:46:08.000Z,1064
2022-08-22T04:47:23.000Z,1132
2022-08-22T04:48:39.000Z,1200
2022-08-22T04:49:55.000Z,1260
2022-08-22T04:51:10.000Z,1328
2022-08-22T04:52:26.000Z,1400
2022-08-22T04:54:58.000Z,1540
2022-08-22T04:56:15.000Z,1604
2022-08-22T04:57:31.000Z,1688
2022-08-22T04:58:47.000Z,1792
2022-08-22T05:00:03.000Z,1912
2022-08-22T05:01:19.000Z,2032
2022-08-22T05:02:35.000Z,2144
2022-08-22T05:03:52.000Z,2236
2022-08-22T05:05:08.000Z,2296
2022-08-22T05:06:24.000Z,2348
2022-08-22T05:07:39.000Z,2404
2022-08-22T05:08:55.000Z,2452
2022-08-22T05:10:12.000Z,2444
2022-08-22T05:11:28.000Z,2496
2022-08-22T05:12:44.000Z,2636
2022-08-22T05:14:00.000Z,2820
2022-08-22T05:15:16.000Z,2908
2022-08-22T05:16:33.000Z,3044
2022-08-22T05:17:49.000Z,3180
2022-08-22T05:19:04.000Z,3228
2022-08-22T05:20:19.000Z,3480
2022-08-22T05:21:35.000Z,3940
2022-08-22T05:22:51.000Z,4464
2022-08-22T05:24:06.000Z,4864
2022-08-22T05:25:22.000Z,5136
2022-08-22T05:26:38.000Z,5304
2022-08-22T05:27:54.000Z,5456
2022-08-22T05:29:11.000Z,5612
2022-08-22T05:30:27.000Z,5652
2022-08-22T05:31:43.000Z,5624
2022-08-22T05:32:59.000Z,5616
2022-08-22T05:34:15.000Z,5228
2022-08-22T05:35:32.000Z,5292
2022-08-22T05:36:48.000Z,5764
2022-08-22T05:38:04.000Z,6012
2022-08-22T05:39:20.000Z,27136
2022-08-22T05:40:35.000Z,26976
2022-08-22T05:41:52.000Z,51808
2022-08-22T05:43:08.000Z,54240
2022-08-22T05:44:24.000Z,54208
2022-08-22T05:45:40.000Z,56800
2022-08-22T05:46:56.000Z,56160
2022-08-22T05:48:13.000Z,55872
2022-08-22T05:49:28.000Z,56800
2022-08-22T05:50:43.000Z,57184
2022-08-22T05:51:59.000Z,57856
2022-08-22T05:53:14.000Z,64032
2022-08-22T05:54:30.000Z,66496
2022-08-22T05:55:46.000Z,65920
2022-08-22T05:57:02.000Z,49952
2022-08-22T05:58:18.000Z,12392
2022-08-22T05:59:34.000Z,11768
2022-08-22T06:00:51.000Z,22656
2022-08-22T06:02:07.000Z,9064
2022-08-22T06:03:23.000Z,8472
2022-08-22T06:04:39.000Z,9668
2022-08-22T06:05:55.000Z,8552
2022-08-22T06:07:12.000Z,9172
2022-08-22T06:08:28.000Z,10308
2022-08-22T06:11:00.000Z,71264
2022-08-22T06:12:16.000Z,40192
2022-08-22T06:13:32.000Z,57344
2022-08-22T06:14:48.000Z,37376
2022-08-22T06:16:04.000Z,26432
2022-08-22T06:17:20.000Z,73952
2022-08-22T06:18:36.000Z,73600
2022-08-22T06:19:53.000Z,71168
2022-08-22T06:21:09.000Z,72032
2022-08-22T06:22:24.000Z,74528
2022-08-22T06:23:39.000Z,76096
2022-08-22T06:24:54.000Z,58304
2022-08-22T06:26:10.000Z,30784
2022-08-22T06:27:26.000Z,26592
2022-08-22T06:28:42.000Z,23776
2022-08-22T06:29:58.000Z,14108
2022-08-22T06:31:14.000Z,13696
2022-08-22T06:32:31.000Z,15552
2022-08-22T06:33:47.000Z,14000
2022-08-22T06:35:03.000Z,14572
2022-08-22T06:36:19.000Z,15644
2022-08-22T06:37:35.000Z,18944
2022-08-22T06:38:52.000Z,81440
2022-08-22T06:40:08.000Z,67776
2022-08-22T06:41:24.000Z,39200
2022-08-22T06:42:39.000Z,19136
2022-08-22T06:43:55.000Z,16992
2022-08-22T06:45:12.000Z,18464
2022-08-22T06:46:28.000Z,27648
2022-08-22T06:50:16.000Z,22592
2022-08-22T06:51:33.000Z,21440
2022-08-22T06:52:48.000Z,38528
2022-08-22T06:54:04.000Z,71456
2022-08-22T06:55:20.000Z,88096
2022-08-22T06:56:36.000Z,30560
2022-08-22T06:57:53.000Z,19456
2022-08-22T06:59:09.000Z,29888
2022-08-22T07:01:41.000Z,21152
2022-08-22T07:02:57.000Z,21568
2022-08-22T07:04:14.000Z,17280
2022-08-22T07:05:30.000Z,17120
2022-08-22T07:06:46.000Z,19200
2022-08-22T07:08:02.000Z,21056
2022-08-22T07:09:17.000Z,31264
2022-08-22T07:10:34.000Z,50912
2022-08-22T07:11:50.000Z,30688
2022-08-22T07:13:06.000Z,26944
2022-08-22T07:14:22.000Z,27456
2022-08-22T07:15:38.000Z,33984
2022-08-22T07:16:55.000Z,35040
2022-08-22T07:18:11.000Z,23712
2022-08-22T07:19:26.000Z,28320
2022-08-22T07:20:41.000Z,21888
2022-08-22T07:21:56.000Z,29568
2022-08-22T07:23:12.000Z,46656
2022-08-22T07:24:28.000Z,26432
2022-08-22T07:25:44.000Z,29600
2022-08-22T07:27:00.000Z,82432
2022-08-22T07:28:16.000Z,61728
2022-08-22T07:29:33.000Z,67328
2022-08-22T07:30:49.000Z,59104
2022-08-22T07:32:05.000Z,63488
2022-08-22T07:33:21.000Z,25984
2022-08-22T07:34:37.000Z,26784
2022-08-22T07:35:54.000Z,34112
2022-08-22T07:37:10.000Z,58432
2022-08-22T07:38:26.000Z,27616
2022-08-22T07:39:41.000Z,43712
2022-08-22T07:40:57.000Z,77888
2022-08-22T07:42:14.000Z,78048
2022-08-22T07:43:30.000Z,24928
2022-08-22T07:44:46.000Z,68800
2022-08-22T07:46:02.000Z,91232
2022-08-22T07:47:18.000Z,76160
2022-08-22T07:48:34.000Z,27232
2022-08-22T07:49:49.000Z,29632
2022-08-22T07:51:05.000Z,70176
2022-08-22T07:52:21.000Z,44704
2022-08-22T07:53:37.000Z,42624
2022-08-22T07:54:53.000Z,27456
2022-08-22T07:56:08.000Z,46016
2022-08-22T07:57:24.000Z,48960
2022-08-22T07:58:40.000Z,56832
2022-08-22T07:59:55.000Z,49632
2022-08-22T08:01:11.000Z,44192
2022-08-22T08:02:27.000Z,30944
2022-08-22T08:04:59.000Z,21120
2022-08-22T08:06:15.000Z,19648
2022-08-22T08:07:32.000Z,16200
2022-08-22T08:08:48.000Z,15716
2022-08-22T08:10:04.000Z,17072
2022-08-22T08:11:20.000Z,18176
2022-08-22T08:12:36.000Z,19232
2022-08-22T08:13:53.000Z,17824
2022-08-22T08:15:09.000Z,16292
2022-08-22T08:16:25.000Z,15504
2022-08-22T08:17:40.000Z,19776
2022-08-22T08:18:56.000Z,17760
2022-08-22T08:20:13.000Z,14268
2022-08-22T08:21:29.000Z,13244
2022-08-22T08:22:45.000Z,13396
2022-08-22T08:24:01.000Z,13924
2022-08-22T08:25:17.000Z,14892
2022-08-22T08:26:33.000Z,16400
2022-08-22T08:27:49.000Z,20288
2022-08-22T08:29:04.000Z,27616
2022-08-22T08:30:19.000Z,44576
2022-08-22T08:31:34.000Z,42368
2022-08-22T08:32:51.000Z,42624
2022-08-22T08:34:07.000Z,31616
2022-08-22T08:35:23.000Z,29376
2022-08-22T08:36:39.000Z,31840
2022-08-22T08:37:55.000Z,36768
2022-08-22T08:39:12.000Z,63744
2022-08-22T08:40:28.000Z,38656
2022-08-22T08:41:44.000Z,38432
2022-08-22T08:43:00.000Z,42656
2022-08-22T08:44:16.000Z,30304
2022-08-22T08:45:33.000Z,32064
2022-08-22T08:46:49.000Z,48832
2022-08-22T08:48:04.000Z,40032
2022-08-22T08:49:20.000Z,35360
2022-08-22T08:50:36.000Z,36064
2022-08-22T08:51:53.000Z,69664
2022-08-22T08:53:09.000Z,86560
2022-08-22T08:54:25.000Z,87296
2022-08-22T08:55:41.000Z,86432
2022-08-22T08:56:56.000Z,69984
2022-08-22T08:58:12.000Z,42816
2022-08-22T08:59:28.000Z,32000
2022-08-22T09:00:43.000Z,26944
2022-08-22T09:01:59.000Z,25760
2022-08-22T09:03:14.000Z,23808
2022-08-22T09:04:31.000Z,22880
2022-08-22T09:05:47.000Z,23680
2022-08-22T09:07:03.000Z,23040
2022-08-22T09:08:19.000Z,22624
2022-08-22T09:09:35.000Z,22368
2022-08-22T09:10:52.000Z,21920
2022-08-22T09:12:08.000Z,21120
2022-08-22T09:13:24.000Z,21184
2022-08-22T09:14:40.000Z,20672
2022-08-22T09:15:56.000Z,21184
2022-08-22T09:17:13.000Z,22688
2022-08-22T09:18:29.000Z,23200
2022-08-22T09:19:44.000Z,23520
2022-08-22T09:21:00.000Z,22944
2022-08-22T09:22:16.000Z,22208
2022-08-22T09:23:33.000Z,21504
2022-08-22T09:24:49.000Z,21472
2022-08-22T09:26:05.000Z,21184
2022-08-22T09:27:21.000Z,20384
2022-08-22T09:28:36.000Z,21088
2022-08-22T09:29:52.000Z,20768
2022-08-22T09:31:08.000Z,21696
2022-08-22T09:33:40.000Z,21504
2022-08-22T09:34:55.000Z,20832
2022-08-22T09:36:11.000Z,20672
2022-08-22T09:37:27.000Z,20448
2022-08-22T09:38:43.000Z,20064
2022-08-22T09:39:59.000Z,19552
2022-08-22T09:41:15.000Z,19104
2022-08-22T09:42:32.000Z,18752
2022-08-22T09:46:20.000Z,17216
2022-08-22T09:47:36.000Z,16568
2022-08-22T09:48:53.000Z,16472
2022-08-22T09:50:09.000Z,16140
2022-08-22T09:51:24.000Z,15992
2022-08-22T09:52:39.000Z,15976
2022-08-22T09:53:55.000Z,15972
2022-08-22T09:55:12.000Z,15960
2022-08-22T09:56:28.000Z,15892
2022-08-22T09:57:44.000Z,15768
2022-08-22T09:59:00.000Z,15656
2022-08-22T10:00:16.000Z,15676
2022-08-22T10:01:33.000Z,15764
2022-08-22T10:02:49.000Z,15860
2022-08-22T10:04:05.000Z,15984
2022-08-22T10:05:21.000Z,16088
2022-08-22T10:06:36.000Z,16192
2022-08-22T10:07:52.000Z,16184
2022-08-22T10:09:08.000Z,16180
2022-08-22T10:11:40.000Z,16100
2022-08-22T10:12:56.000Z,16256
2022-08-22T10:15:29.000Z,16752
2022-08-22T10:16:45.000Z,16324
2022-08-22T10:18:01.000Z,16284
2022-08-22T10:19:17.000Z,16032
2022-08-22T10:20:33.000Z,16052
2022-08-22T10:21:50.000Z,15828
2022-08-22T10:23:05.000Z,16028
2022-08-22T10:24:20.000Z,15932
2022-08-22T10:25:36.000Z,15852
2022-08-22T10:26:53.000Z,16272
2022-08-22T10:28:09.000Z,15292
2022-08-22T10:29:25.000Z,15612
2022-08-22T10:30:41.000Z,15048
2022-08-22T10:31:57.000Z,14112
2022-08-22T10:33:13.000Z,14240
2022-08-22T10:34:30.000Z,14024
2022-08-22T10:35:46.000Z,13272
2022-08-22T10:37:01.000Z,12400
2022-08-22T10:38:16.000Z,12168
2022-08-22T10:39:33.000Z,11784
2022-08-22T10:40:49.000Z,12628
2022-08-22T10:42:05.000Z,12948
2022-08-22T10:43:21.000Z,12736
2022-08-22T10:44:37.000Z,13008
2022-08-22T10:45:54.000Z,12940
2022-08-22T10:47:10.000Z,12732
2022-08-22T10:48:26.000Z,12548
2022-08-22T10:49:42.000Z,12388
2022-08-22T10:50:58.000Z,12112
2022-08-22T10:52:14.000Z,11952
2022-08-22T10:53:31.000Z,11748
2022-08-22T10:54:46.000Z,11236
2022-08-22T10:56:02.000Z,10920
2022-08-22T10:57:18.000Z,10536
2022-08-22T10:58:34.000Z,10160
2022-08-22T10:59:51.000Z,9772
2022-08-22T11:01:07.000Z,9392
2022-08-22T11:02:23.000Z,9056
2022-08-22T11:03:38.000Z,8848
2022-08-22T11:04:53.000Z,8552
2022-08-22T11:06:09.000Z,8284
2022-08-22T11:07:24.000Z,8052
2022-08-22T11:08:40.000Z,7884
2022-08-22T11:09:56.000Z,7768
2022-08-22T11:11:13.000Z,7676
2022-08-22T11:12:29.000Z,7616
2022-08-22T11:15:01.000Z,7512
2022-08-22T11:16:17.000Z,7496
2022-08-22T11:17:33.000Z,7492
2022-08-22T11:18:50.000Z,7516
2022-08-22T11:20:06.000Z,7492
2022-08-22T11:21:22.000Z,7424
2022-08-22T11:22:38.000Z,7328
2022-08-22T11:23:53.000Z,7192
2022-08-22T11:25:10.000Z,7076
2022-08-22T11:26:26.000Z,6968
2022-08-22T11:27:42.000Z,6852
2022-08-22T11:28:58.000Z,6724
2022-08-22T11:30:14.000Z,6624
2022-08-22T11:31:31.000Z,6512
2022-08-22T11:32:47.000Z,6380
2022-08-22T11:34:02.000Z,6252
2022-08-22T11:35:17.000Z,6124
2022-08-22T11:36:33.000Z,6020
2022-08-22T11:37:48.000Z,5952
2022-08-22T11:39:04.000Z,5904
2022-08-22T11:40:20.000Z,5860
2022-08-22T11:41:36.000Z,5824
2022-08-22T11:42:53.000Z,5816
2022-08-22T11:44:09.000Z,5804
2022-08-22T11:45:25.000Z,5780
2022-08-22T11:46:41.000Z,5748
2022-08-22T11:47:57.000Z,5700
2022-08-22T11:49:13.000Z,5668
2022-08-22T11:50:30.000Z,5620
2022-08-22T11:53:02.000Z,5600
2022-08-22T11:54:17.000Z,5608
2022-08-22T11:55:33.000Z,5632
2022-08-22T11:56:50.000Z,5692
2022-08-22T11:58:06.000Z,5740
2022-08-22T11:59:22.000Z,5768
2022-08-22T12:00:38.000Z,5196
2022-08-22T12:01:54.000Z,5116
2022-08-22T12:03:11.000Z,4952
2022-08-22T12:04:26.000Z,4896
2022-08-22T12:05:41.000Z,5348
2022-08-22T12:06:57.000Z,5236
2022-08-22T12:08:13.000Z,5220
2022-08-22T12:09:30.000Z,4952
2022-08-22T12:10:46.000Z,5012
2022-08-22T12:12:02.000Z,5204
2022-08-22T12:13:18.000Z,5436
2022-08-22T12:14:34.000Z,5848
2022-08-22T12:15:51.000Z,6012
2022-08-22T12:17:07.000Z,7012
2022-08-22T12:18:23.000Z,6784
2022-08-22T12:19:39.000Z,7384
2022-08-22T12:20:55.000Z,7436
2022-08-22T12:25:59.000Z,7332
2022-08-22T12:27:14.000Z,7336
2022-08-22T12:28:30.000Z,7056
2022-08-22T12:29:45.000Z,6344
2022-08-22T12:33:32.000Z,5920
2022-08-22T12:34:49.000Z,5600
2022-08-22T12:36:05.000Z,5460
2022-08-22T12:37:21.000Z,5556
2022-08-22T12:38:37.000Z,5736
2022-08-22T12:39:53.000Z,5736
2022-08-22T12:41:10.000Z,5536
2022-08-22T12:42:26.000Z,5504
2022-08-22T12:43:42.000Z,5424
2022-08-22T12:44:58.000Z,5296
2022-08-22T12:46:13.000Z,5136
2022-08-22T12:47:29.000Z,5084
2022-08-22T12:48:45.000Z,5292
2022-08-22T12:50:01.000Z,5708
2022-08-22T12:51:17.000Z,6240
2022-08-22T12:52:33.000Z,6340
2022-08-22T12:53:50.000Z,6504
2022-08-22T12:56:22.000Z,6472
2022-08-22T12:57:38.000Z,6544
2022-08-22T12:58:54.000Z,6700
2022-08-22T13:00:11.000Z,6760
2022-08-22T13:01:27.000Z,6744
2022-08-22T13:02:43.000Z,6736
2022-08-22T13:03:58.000Z,6792
2022-08-22T13:05:14.000Z,6868
2022-08-22T13:06:31.000Z,6916
2022-08-22T13:07:47.000Z,6920
2022-08-22T13:09:03.000Z,6840
2022-08-22T13:10:19.000Z,6536
2022-08-22T13:11:35.000Z,5992
2022-08-22T13:12:52.000Z,6592
2022-08-22T13:14:08.000Z,6556
2022-08-22T13:15:23.000Z,6496
2022-08-22T13:16:38.000Z,6496
2022-08-22T13:17:54.000Z,6140
2022-08-22T13:19:10.000Z,6352
2022-08-22T13:21:41.000Z,5420
2022-08-22T13:22:57.000Z,5412
2022-08-22T13:24:13.000Z,5228
2022-08-22T13:25:30.000Z,5152
2022-08-22T13:26:46.000Z,5028
2022-08-22T13:28:02.000Z,5000
2022-08-22T13:29:18.000Z,4924
2022-08-22T13:30:34.000Z,5032
2022-08-22T13:31:51.000Z,5032
2022-08-22T13:33:07.000Z,4940
2022-08-22T13:34:23.000Z,4744
2022-08-22T13:35:39.000Z,4676
2022-08-22T13:36:54.000Z,4696
2022-08-22T13:38:11.000Z,4780
2022-08-22T13:39:27.000Z,4872
2022-08-22T13:40:43.000Z,4940
2022-08-22T13:41:59.000Z,4968
2022-08-22T13:43:15.000Z,5020
2022-08-22T13:44:32.000Z,5096
2022-08-22T13:45:48.000Z,5136
2022-08-22T13:47:04.000Z,5140
2022-08-22T13:48:19.000Z,5128
2022-08-22T13:49:34.000Z,5120
2022-08-22T13:50:51.000Z,5132
2022-08-22T13:52:06.000Z,5160
2022-08-22T13:53:22.000Z,5188
2022-08-22T13:54:37.000Z,5196
2022-08-22T13:55:53.000Z,5216
2022-08-22T13:57:10.000Z,5300
2022-08-22T13:59:42.000Z,5456
2022-08-22T14:00:58.000Z,5528
2022-08-22T14:02:14.000Z,5620
2022-08-22T14:03:31.000Z,5660
2022-08-22T14:04:47.000Z,5700
2022-08-22T14:06:03.000Z,5748
2022-08-22T14:07:19.000Z,5780
2022-08-22T14:08:35.000Z,5816
2022-08-22T14:09:52.000Z,5796
2022-08-22T14:11:07.000Z,5720
2022-08-22T14:12:23.000Z,5636
2022-08-22T14:13:39.000Z,5560
2022-08-22T14:14:55.000Z,5484
2022-08-22T14:16:12.000Z,5396
2022-08-22T14:17:28.000Z,5300
2022-08-22T14:18:44.000Z,5228
2022-08-22T14:19:59.000Z,5168
2022-08-22T14:21:14.000Z,5136
2022-08-22T14:22:30.000Z,5136
2022-08-22T14:23:45.000Z,5164
2022-08-22T14:25:01.000Z,5212
2022-08-22T14:26:17.000Z,5228
2022-08-22T14:27:33.000Z,5252
2022-08-22T14:28:50.000Z,5284
2022-08-22T14:30:06.000Z,5336
2022-08-22T14:31:22.000Z,5488
2022-08-22T14:32:38.000Z,5620
2022-08-22T14:33:54.000Z,5664
2022-08-22T14:35:11.000Z,5888
2022-08-22T14:37:43.000Z,5452
2022-08-22T14:38:59.000Z,5504
2022-08-22T14:40:14.000Z,5544
2022-08-22T14:41:31.000Z,5352
2022-08-22T14:42:47.000Z,5068
2022-08-22T14:44:03.000Z,4920
2022-08-22T14:45:19.000Z,5088
2022-08-22T14:46:35.000Z,4648
2022-08-22T14:47:52.000Z,4440
2022-08-22T14:49:08.000Z,4284
2022-08-22T14:50:23.000Z,4164
2022-08-22T14:51:38.000Z,4068
2022-08-22T14:52:53.000Z,3972
2022-08-22T14:54:09.000Z,3936
2022-08-22T14:55:25.000Z,3948
2022-08-22T14:56:41.000Z,4020
2022-08-22T14:57:57.000Z,4180
2022-08-22T14:59:13.000Z,4360
2022-08-22T15:00:30.000Z,4556
2022-08-22T15:03:02.000Z,4848
2022-08-22T15:04:18.000Z,4988
2022-08-22T15:05:34.000Z,5108
2022-08-22T15:06:51.000Z,5152
2022-08-22T15:08:07.000Z,5188
2022-08-22T15:09:23.000Z,5248
2022-08-22T15:10:38.000Z,5604
2022-08-22T15:11:54.000Z,5752
2022-08-22T15:13:11.000Z,5832
2022-08-22T15:14:27.000Z,5540
2022-08-22T15:15:43.000Z,6076
2022-08-22T15:16:59.000Z,6336
2022-08-22T15:18:15.000Z,6392
2022-08-22T15:19:32.000Z,5460
2022-08-22T15:20:47.000Z,5616
2022-08-22T15:22:02.000Z,6300
2022-08-22T15:23:17.000Z,6752
2022-08-22T15:24:32.000Z,6392
2022-08-22T15:25:49.000Z,5800
2022-08-22T15:27:05.000Z,6760
2022-08-22T15:28:21.000Z,5800
2022-08-22T15:29:37.000Z,5260
2022-08-22T15:30:53.000Z,5032
2022-08-22T15:32:10.000Z,4764
2022-08-22T15:33:26.000Z,4632
2022-08-22T15:34:42.000Z,4492
2022-08-22T15:35:58.000Z,4364
2022-08-22T15:37:14.000Z,4316
2022-08-22T15:38:31.000Z,4308
2022-08-22T15:41:03.000Z,4492
2022-08-22T15:42:18.000Z,4176
2022-08-22T15:43:34.000Z,4052
2022-08-22T15:44:51.000Z,3988
2022-08-22T15:46:07.000Z,3940
2022-08-22T15:47:23.000Z,3912
2022-08-22T15:48:39.000Z,3900
2022-08-22T15:49:55.000Z,3928
2022-08-22T15:51:11.000Z,4012
2022-08-22T15:52:26.000Z,3968
2022-08-22T15:53:41.000Z,3960
2022-08-22T15:54:56.000Z,3948
2022-08-22T15:56:12.000Z,3928
2022-08-22T15:57:29.000Z,3900
2022-08-22T15:58:45.000Z,3876
2022-08-22T16:00:01.000Z,3900
2022-08-22T16:01:17.000Z,3988
2022-08-22T16:02:33.000Z,4176
2022-08-22T16:03:50.000Z,4232
2022-08-22T16:06:22.000Z,5112
2022-08-22T16:07:38.000Z,5144
2022-08-22T16:08:54.000Z,4940
2022-08-22T16:10:11.000Z,5016
2022-08-22T16:11:26.000Z,4508
2022-08-22T16:12:42.000Z,5380
2022-08-22T16:13:58.000Z,5480
2022-08-22T16:15:14.000Z,5056
2022-08-22T16:16:31.000Z,4676
2022-08-22T16:17:47.000Z,4476
2022-08-22T16:19:03.000Z,4440
2022-08-22T16:20:19.000Z,4244
2022-08-22T16:21:34.000Z,5360
2022-08-22T16:24:06.000Z,5188
2022-08-22T16:25:22.000Z,5240
2022-08-22T16:26:38.000Z,5240
2022-08-22T16:27:54.000Z,5092
2022-08-22T16:29:11.000Z,4664
2022-08-22T16:30:27.000Z,4704
2022-08-22T16:31:43.000Z,4460
2022-08-22T16:32:59.000Z,5128
2022-08-22T16:34:15.000Z,5256
2022-08-22T16:35:32.000Z,5200
2022-08-22T16:36:48.000Z,5080
2022-08-22T16:38:04.000Z,3924
2022-08-22T16:39:19.000Z,4400
2022-08-22T16:40:35.000Z,3640
2022-08-22T16:41:52.000Z,4744
2022-08-22T16:44:24.000Z,3268
2022-08-22T16:45:40.000Z,3160
2022-08-22T16:46:56.000Z,3052
2022-08-22T16:48:13.000Z,2932
2022-08-22T16:49:29.000Z,2808
2022-08-22T16:50:44.000Z,2712
2022-08-22T16:51:59.000Z,2632
2022-08-22T16:53:14.000Z,2568
2022-08-22T16:54:30.000Z,2528
2022-08-22T16:55:46.000Z,2508
2022-08-22T16:57:02.000Z,2896
2022-08-22T16:58:18.000Z,2532
2022-08-22T16:59:34.000Z,2508
2022-08-22T17:00:51.000Z,2484
2022-08-22T17:02:07.000Z,2444
2022-08-22T17:03:23.000Z,2368
2022-08-22T17:04:39.000Z,2292
2022-08-22T17:05:55.000Z,2236
2022-08-22T17:07:12.000Z,2168
2022-08-22T17:08:28.000Z,2088
2022-08-22T17:09:44.000Z,2008
2022-08-22T17:10:59.000Z,1936
2022-08-22T17:12:15.000Z,1892
2022-08-22T17:13:32.000Z,1852
2022-08-22T17:14:48.000Z,1836
2022-08-22T17:16:04.000Z,2056
2022-08-22T17:17:20.000Z,1784
2022-08-22T17:18:35.000Z,1724
2022-08-22T17:19:51.000Z,1724
2022-08-22T17:21:06.000Z,1924
2022-08-22T17:23:38.000Z,1864
2022-08-22T17:24:53.000Z,1700
2022-08-22T17:26:09.000Z,1680
2022-08-22T17:27:25.000Z,1648
2022-08-22T17:28:41.000Z,1404
2022-08-22T17:29:57.000Z,1404
2022-08-22T17:31:13.000Z,1500
2022-08-22T17:32:30.000Z,1520
2022-08-22T17:33:46.000Z,1468
2022-08-22T17:35:02.000Z,1448
2022-08-22T17:36:18.000Z,1436
2022-08-22T17:37:34.000Z,1400
2022-08-22T17:38:51.000Z,1384
2022-08-22T17:40:07.000Z,1356
2022-08-22T17:41:23.000Z,1308
2022-08-22T17:42:38.000Z,1264
2022-08-22T17:43:54.000Z,1220
2022-08-22T17:45:11.000Z,1180
2022-08-22T17:47:43.000Z,1104
2022-08-22T17:48:59.000Z,1056
2022-08-22T17:50:15.000Z,1000